sensor_id;sensor_type;location;lat;lon;timestamp;pressure;altitude;pressure_sealevel;temperature;humidity
6094;BME280;19964;42.060;24.700;2022-08-03T00:00:20;97408.56;;;20.95;65.77
6094;BME280;19964;42.060;24.700;2022-08-03T00:02:50;97363.09;;;20.49;65.99
6094;BME280;19964;42.060;24.700;2022-08-03T00:05:16;97403.28;;;20.68;66.75
6094;BME280;19964;42.060;24.700;2022-08-03T00:07:43;97307.13;;;19.97;66.57
6094;BME280;19964;42.060;24.700;2022-08-03T00:10:11;97387.38;;;20.46;66.90
6094;BME280;19964;42.060;24.700;2022-08-03T00:12:39;97414.03;;;20.71;66.74
6094;BME280;19964;42.060;24.700;2022-08-03T00:15:06;97414.72;;;20.77;66.68
6094;BME280;19964;42.060;24.700;2022-08-03T00:17:33;97378.41;;;20.60;66.90
6094;BME280;19964;42.060;24.700;2022-08-03T00:20:02;97391.88;;;20.72;66.22
6094;BME280;19964;42.060;24.700;2022-08-03T00:22:29;97423.31;;;20.96;66.27
6094;BME280;19964;42.060;24.700;2022-08-03T00:24:56;97303.53;;;20.25;65.38
6094;BME280;19964;42.060;24.700;2022-08-03T00:27:22;97380.56;;;20.72;65.54
6094;BME280;19964;42.060;24.700;2022-08-03T00:29:49;97401.75;;;20.80;65.88
6094;BME280;19964;42.060;24.700;2022-08-03T00:32:16;97358.03;;;20.52;65.56
6094;BME280;19964;42.060;24.700;2022-08-03T00:34:43;97410.13;;;20.96;65.70
6094;BME280;19964;42.060;24.700;2022-08-03T00:37:11;97368.66;;;20.47;66.56
6094;BME280;19964;42.060;24.700;2022-08-03T00:39:38;97414.53;;;20.73;66.73
6094;BME280;19964;42.060;24.700;2022-08-03T00:42:05;97378.50;;;20.55;66.50
6094;BME280;19964;42.060;24.700;2022-08-03T00:44:38;97394.41;;;20.64;66.38
6094;BME280;19964;42.060;24.700;2022-08-03T00:47:05;97421.44;;;20.69;66.92
6094;BME280;19964;42.060;24.700;2022-08-03T00:49:32;97383.16;;;20.45;66.93
6094;BME280;19964;42.060;24.700;2022-08-03T00:51:59;97389.41;;;20.49;67.10
6094;BME280;19964;42.060;24.700;2022-08-03T00:54:28;97409.19;;;20.46;67.33
6094;BME280;19964;42.060;24.700;2022-08-03T00:56:55;97415.19;;;20.65;67.40
6094;BME280;19964;42.060;24.700;2022-08-03T00:59:22;97415.38;;;20.69;67.50
6094;BME280;19964;42.060;24.700;2022-08-03T01:01:49;97391.47;;;20.52;67.14
6094;BME280;19964;42.060;24.700;2022-08-03T01:04:16;97401.78;;;20.48;67.47
6094;BME280;19964;42.060;24.700;2022-08-03T01:06:48;97341.31;;;19.97;68.09
6094;BME280;19964;42.060;24.700;2022-08-03T01:09:24;97417.47;;;20.39;68.47
6094;BME280;19964;42.060;24.700;2022-08-03T01:12:03;97414.25;;;20.42;68.71
6094;BME280;19964;42.060;24.700;2022-08-03T01:14:37;97386.72;;;20.21;68.73
6094;BME280;19964;42.060;24.700;2022-08-03T01:17:11;97379.34;;;20.05;69.11
6094;BME280;19964;42.060;24.700;2022-08-03T01:19:47;97407.00;;;20.21;69.11
6094;BME280;19964;42.060;24.700;2022-08-03T01:25:27;97408.66;;;20.30;68.85
6094;BME280;19964;42.060;24.700;2022-08-03T01:28:12;97396.03;;;20.14;68.81
6094;BME280;19964;42.060;24.700;2022-08-03T01:30:47;97404.22;;;20.12;68.80
6094;BME280;19964;42.060;24.700;2022-08-03T01:33:17;97412.28;;;20.34;68.97
6094;BME280;19964;42.060;24.700;2022-08-03T01:35:49;97396.19;;;20.22;68.78
6094;BME280;19964;42.060;24.700;2022-08-03T01:38:21;97279.91;;;19.42;69.22
6094;BME280;19964;42.060;24.700;2022-08-03T01:40:50;97415.91;;;20.38;68.63
6094;BME280;19964;42.060;24.700;2022-08-03T01:43:21;97419.88;;;20.22;69.56
6094;BME280;19964;42.060;24.700;2022-08-03T01:45:54;97428.34;;;20.01;70.42
6094;BME280;19964;42.060;24.700;2022-08-03T01:48:22;97416.25;;;20.00;70.52
6094;BME280;19964;42.060;24.700;2022-08-03T01:50:51;97410.19;;;19.99;69.93
6094;BME280;19964;42.060;24.700;2022-08-03T01:53:21;97403.09;;;20.00;69.81
6094;BME280;19964;42.060;24.700;2022-08-03T01:55:52;97425.47;;;20.16;69.83
6094;BME280;19964;42.060;24.700;2022-08-03T01:58:20;97410.84;;;20.10;70.19
6094;BME280;19964;42.060;24.700;2022-08-03T02:00:51;97311.34;;;19.29;70.49
6094;BME280;19964;42.060;24.700;2022-08-03T02:03:22;97417.88;;;19.96;70.70
6094;BME280;19964;42.060;24.700;2022-08-03T02:05:52;97402.13;;;19.59;72.50
6094;BME280;19964;42.060;24.700;2022-08-03T02:08:21;97391.03;;;19.43;72.70
6094;BME280;19964;42.060;24.700;2022-08-03T02:10:50;97420.41;;;19.50;73.62
6094;BME280;19964;42.060;24.700;2022-08-03T02:13:19;97415.59;;;19.33;74.39
6094;BME280;19964;42.060;24.700;2022-08-03T02:15:47;97394.59;;;19.33;73.66
6094;BME280;19964;42.060;24.700;2022-08-03T02:18:17;97371.53;;;19.25;73.51
6094;BME280;19964;42.060;24.700;2022-08-03T02:20:47;97415.28;;;19.59;73.85
6094;BME280;19964;42.060;24.700;2022-08-03T02:23:15;97417.63;;;19.60;73.47
6094;BME280;19964;42.060;24.700;2022-08-03T02:25:45;97416.41;;;19.71;72.76
6094;BME280;19964;42.060;24.700;2022-08-03T02:28:16;97400.06;;;19.74;72.26
6094;BME280;19964;42.060;24.700;2022-08-03T02:30:45;97422.16;;;19.92;72.10
6094;BME280;19964;42.060;24.700;2022-08-03T02:33:18;97405.25;;;19.79;72.14
6094;BME280;19964;42.060;24.700;2022-08-03T02:35:48;97422.94;;;20.11;71.35
6094;BME280;19964;42.060;24.700;2022-08-03T02:38:19;97421.34;;;20.10;71.32
6094;BME280;19964;42.060;24.700;2022-08-03T02:40:48;97302.63;;;19.33;71.81
6094;BME280;19964;42.060;24.700;2022-08-03T02:43:19;97422.16;;;20.10;71.80
6094;BME280;19964;42.060;24.700;2022-08-03T02:45:48;97425.97;;;20.18;72.10
6094;BME280;19964;42.060;24.700;2022-08-03T02:48:17;97416.25;;;20.18;71.79
6094;BME280;19964;42.060;24.700;2022-08-03T02:50:48;97421.94;;;20.07;72.91
6094;BME280;19964;42.060;24.700;2022-08-03T02:53:18;97399.91;;;20.03;72.65
6094;BME280;19964;42.060;24.700;2022-08-03T02:55:46;97403.28;;;20.03;72.85
6094;BME280;19964;42.060;24.700;2022-08-03T02:58:16;97385.97;;;20.02;72.37
6094;BME280;19964;42.060;24.700;2022-08-03T03:00:44;97401.59;;;20.12;72.42
6094;BME280;19964;42.060;24.700;2022-08-03T03:03:12;97407.81;;;20.35;71.84
6094;BME280;19964;42.060;24.700;2022-08-03T03:05:40;97448.72;;;20.60;71.48
6094;BME280;19964;42.060;24.700;2022-08-03T03:08:11;97437.78;;;20.53;71.59
6094;BME280;19964;42.060;24.700;2022-08-03T03:10:40;97431.03;;;20.14;73.88
6094;BME280;19964;42.060;24.700;2022-08-03T03:13:08;97381.94;;;19.73;74.58
6094;BME280;19964;42.060;24.700;2022-08-03T03:15:36;97445.91;;;20.24;73.30
6094;BME280;19964;42.060;24.700;2022-08-03T03:18:04;97429.63;;;20.22;72.60
6094;BME280;19964;42.060;24.700;2022-08-03T03:20:35;97448.16;;;20.30;72.91
6094;BME280;19964;42.060;24.700;2022-08-03T03:23:03;97435.38;;;20.24;72.72
6094;BME280;19964;42.060;24.700;2022-08-03T03:25:33;97437.31;;;20.18;72.93
6094;BME280;19964;42.060;24.700;2022-08-03T03:28:02;97440.22;;;19.98;74.23
6094;BME280;19964;42.060;24.700;2022-08-03T03:30:30;97441.00;;;19.99;74.08
6094;BME280;19964;42.060;24.700;2022-08-03T03:32:57;97443.91;;;19.79;75.27
6094;BME280;19964;42.060;24.700;2022-08-03T03:35:24;97428.91;;;19.61;75.38
6094;BME280;19964;42.060;24.700;2022-08-03T03:37:51;97447.47;;;19.69;75.86
6094;BME280;19964;42.060;24.700;2022-08-03T03:40:19;97453.94;;;19.77;75.72
6094;BME280;19964;42.060;24.700;2022-08-03T03:42:49;97439.59;;;19.69;75.75
6094;BME280;19964;42.060;24.700;2022-08-03T03:45:16;97447.38;;;19.74;75.40
6094;BME280;19964;42.060;24.700;2022-08-03T03:47:44;97467.09;;;19.95;74.87
6094;BME280;19964;42.060;24.700;2022-08-03T03:50:11;97475.34;;;19.89;75.09
6094;BME280;19964;42.060;24.700;2022-08-03T03:52:38;97448.38;;;19.78;75.39
6094;BME280;19964;42.060;24.700;2022-08-03T03:55:06;97475.59;;;20.06;74.50
6094;BME280;19964;42.060;24.700;2022-08-03T03:57:33;97458.63;;;19.98;73.84
6094;BME280;19964;42.060;24.700;2022-08-03T04:00:02;97450.78;;;20.12;72.62
6094;BME280;19964;42.060;24.700;2022-08-03T04:02:29;97464.53;;;20.27;73.30
6094;BME280;19964;42.060;24.700;2022-08-03T04:04:56;97484.81;;;20.59;72.87
6094;BME280;19964;42.060;24.700;2022-08-03T04:07:46;97486.81;;;20.94;71.34
6094;BME280;19964;42.060;24.700;2022-08-03T04:10:35;97478.56;;;21.01;71.39
6094;BME280;19964;42.060;24.700;2022-08-03T04:13:24;97479.75;;;21.36;70.11
6094;BME280;19964;42.060;24.700;2022-08-03T04:15:55;97483.53;;;21.57;69.76
6094;BME280;19964;42.060;24.700;2022-08-03T04:18:23;97483.31;;;21.67;68.83
6094;BME280;19964;42.060;24.700;2022-08-03T04:20:53;97482.81;;;21.92;68.14
6094;BME280;19964;42.060;24.700;2022-08-03T04:23:23;97494.50;;;22.22;67.35
6094;BME280;19964;42.060;24.700;2022-08-03T04:25:51;97471.56;;;22.44;66.12
6094;BME280;19964;42.060;24.700;2022-08-03T04:28:19;97495.69;;;22.73;65.38
6094;BME280;19964;42.060;24.700;2022-08-03T04:30:48;97482.41;;;22.65;65.19
6094;BME280;19964;42.060;24.700;2022-08-03T04:33:18;97498.38;;;22.82;65.40
6094;BME280;19964;42.060;24.700;2022-08-03T04:35:48;97501.28;;;22.72;65.78
6094;BME280;19964;42.060;24.700;2022-08-03T04:38:17;97501.88;;;22.69;65.95
6094;BME280;19964;42.060;24.700;2022-08-03T04:40:45;97509.81;;;22.55;66.20
6094;BME280;19964;42.060;24.700;2022-08-03T04:43:13;97491.09;;;22.43;66.74
6094;BME280;19964;42.060;24.700;2022-08-03T04:45:42;97502.75;;;22.42;67.23
6094;BME280;19964;42.060;24.700;2022-08-03T04:48:12;97503.41;;;22.48;67.88
6094;BME280;19964;42.060;24.700;2022-08-03T04:50:41;97503.88;;;22.28;68.74
6094;BME280;19964;42.060;24.700;2022-08-03T04:53:08;97505.50;;;22.37;68.54
6094;BME280;19964;42.060;24.700;2022-08-03T04:55:35;97512.00;;;22.31;69.10
6094;BME280;19964;42.060;24.700;2022-08-03T04:58:03;97515.19;;;22.42;68.44
6094;BME280;19964;42.060;24.700;2022-08-03T05:00:30;97517.22;;;22.45;68.91
6094;BME280;19964;42.060;24.700;2022-08-03T05:02:58;97512.44;;;22.47;68.65
6094;BME280;19964;42.060;24.700;2022-08-03T05:05:25;97514.28;;;22.46;69.12
6094;BME280;19964;42.060;24.700;2022-08-03T05:07:53;97522.19;;;22.60;68.77
6094;BME280;19964;42.060;24.700;2022-08-03T05:10:20;97520.09;;;22.35;70.25
6094;BME280;19964;42.060;24.700;2022-08-03T05:12:47;97523.38;;;22.18;71.37
6094;BME280;19964;42.060;24.700;2022-08-03T05:15:16;97525.56;;;22.38;71.09
6094;BME280;19964;42.060;24.700;2022-08-03T05:17:42;97534.03;;;22.49;70.78
6094;BME280;19964;42.060;24.700;2022-08-03T05:20:10;97520.97;;;22.66;70.41
6094;BME280;19964;42.060;24.700;2022-08-03T05:22:37;97532.94;;;22.94;70.44
6094;BME280;19964;42.060;24.700;2022-08-03T05:25:06;97532.91;;;23.16;70.77
6094;BME280;19964;42.060;24.700;2022-08-03T05:27:33;97515.38;;;22.89;69.76
6094;BME280;19964;42.060;24.700;2022-08-03T05:30:00;97529.03;;;23.22;70.47
6094;BME280;19964;42.060;24.700;2022-08-03T05:32:27;97524.34;;;23.19;70.37
6094;BME280;19964;42.060;24.700;2022-08-03T05:34:54;97535.25;;;23.48;70.05
6094;BME280;19964;42.060;24.700;2022-08-03T05:37:21;97508.13;;;23.43;69.37
6094;BME280;19964;42.060;24.700;2022-08-03T05:39:47;97547.56;;;23.70;68.39
6094;BME280;19964;42.060;24.700;2022-08-03T05:42:16;97527.06;;;23.75;66.09
6094;BME280;19964;42.060;24.700;2022-08-03T05:44:43;97513.53;;;23.85;64.45
6094;BME280;19964;42.060;24.700;2022-08-03T05:47:09;97542.41;;;24.13;64.27
6094;BME280;19964;42.060;24.700;2022-08-03T05:49:36;97547.78;;;23.91;60.75
6094;BME280;19964;42.060;24.700;2022-08-03T05:52:03;97505.25;;;23.22;64.01
6094;BME280;19964;42.060;24.700;2022-08-03T05:54:30;97551.88;;;23.49;64.87
6094;BME280;19964;42.060;24.700;2022-08-03T05:56:57;97536.97;;;23.22;64.90
6094;BME280;19964;42.060;24.700;2022-08-03T05:59:25;97550.06;;;23.58;65.01
6094;BME280;19964;42.060;24.700;2022-08-03T06:01:52;97412.13;;;22.86;65.73
6094;BME280;19964;42.060;24.700;2022-08-03T06:04:19;97528.97;;;24.01;62.37
6094;BME280;19964;42.060;24.700;2022-08-03T06:06:46;97539.63;;;24.26;61.05
6094;BME280;19964;42.060;24.700;2022-08-03T06:09:15;97520.13;;;24.14;60.91
6094;BME280;19964;42.060;24.700;2022-08-03T06:11:41;97565.13;;;24.48;59.65
6094;BME280;19964;42.060;24.700;2022-08-03T06:14:08;97526.66;;;24.59;60.63
6094;BME280;19964;42.060;24.700;2022-08-03T06:16:36;97535.84;;;24.44;56.74
6094;BME280;19964;42.060;24.700;2022-08-03T06:19:03;97531.50;;;24.40;56.92
6094;BME280;19964;42.060;24.700;2022-08-03T06:21:30;97521.22;;;24.55;56.08
6094;BME280;19964;42.060;24.700;2022-08-03T06:23:57;97539.06;;;25.01;55.82
6094;BME280;19964;42.060;24.700;2022-08-03T06:26:25;97549.66;;;25.10;57.71
6094;BME280;19964;42.060;24.700;2022-08-03T06:28:53;97565.06;;;25.16;58.72
6094;BME280;19964;42.060;24.700;2022-08-03T06:31:21;97541.84;;;25.13;59.10
6094;BME280;19964;42.060;24.700;2022-08-03T06:33:49;97532.22;;;24.92;58.35
6094;BME280;19964;42.060;24.700;2022-08-03T06:36:16;97556.34;;;25.16;59.47
6094;BME280;19964;42.060;24.700;2022-08-03T06:38:43;97522.13;;;24.77;59.74
6094;BME280;19964;42.060;24.700;2022-08-03T06:41:10;97540.44;;;25.16;59.99
6094;BME280;19964;42.060;24.700;2022-08-03T06:43:37;97536.72;;;25.08;58.55
6094;BME280;19964;42.060;24.700;2022-08-03T06:46:04;97544.50;;;25.13;60.55
6094;BME280;19964;42.060;24.700;2022-08-03T06:48:31;97577.84;;;25.14;60.34
6094;BME280;19964;42.060;24.700;2022-08-03T06:50:59;97553.09;;;25.10;57.71
6094;BME280;19964;42.060;24.700;2022-08-03T06:53:26;97586.13;;;25.68;55.64
6094;BME280;19964;42.060;24.700;2022-08-03T06:55:52;97570.63;;;25.40;57.56
6094;BME280;19964;42.060;24.700;2022-08-03T06:58:19;97555.44;;;25.79;58.73
6094;BME280;19964;42.060;24.700;2022-08-03T07:00:46;97543.38;;;26.19;58.29
6094;BME280;19964;42.060;24.700;2022-08-03T07:03:14;97579.69;;;26.48;53.47
6094;BME280;19964;42.060;24.700;2022-08-03T07:05:42;97555.28;;;26.04;54.74
6094;BME280;19964;42.060;24.700;2022-08-03T07:08:12;97585.41;;;26.37;54.90
6094;BME280;19964;42.060;24.700;2022-08-03T07:10:39;97537.47;;;25.84;54.66
6094;BME280;19964;42.060;24.700;2022-08-03T07:13:06;97546.03;;;26.19;54.06
6094;BME280;19964;42.060;24.700;2022-08-03T07:15:33;97584.13;;;26.64;55.05
6094;BME280;19964;42.060;24.700;2022-08-03T07:18:01;97585.28;;;27.08;53.40
6094;BME280;19964;42.060;24.700;2022-08-03T07:20:28;97548.97;;;26.59;55.53
6094;BME280;19964;42.060;24.700;2022-08-03T07:22:55;97585.75;;;26.77;52.15
6094;BME280;19964;42.060;24.700;2022-08-03T07:25:23;97547.59;;;27.06;52.05
6094;BME280;19964;42.060;24.700;2022-08-03T07:27:50;97560.44;;;27.04;52.27
6094;BME280;19964;42.060;24.700;2022-08-03T07:30:17;97516.53;;;26.86;51.49
6094;BME280;19964;42.060;24.700;2022-08-03T07:32:44;97539.56;;;26.61;50.90
6094;BME280;19964;42.060;24.700;2022-08-03T07:35:11;97585.19;;;26.63;52.36
6094;BME280;19964;42.060;24.700;2022-08-03T07:37:38;97471.31;;;26.20;52.97
6094;BME280;19964;42.060;24.700;2022-08-03T07:40:05;97562.59;;;26.78;52.74
6094;BME280;19964;42.060;24.700;2022-08-03T07:42:34;97588.53;;;26.60;52.33
6094;BME280;19964;42.060;24.700;2022-08-03T07:45:01;97579.63;;;26.77;53.14
6094;BME280;19964;42.060;24.700;2022-08-03T07:47:29;97591.25;;;27.74;52.19
6094;BME280;19964;42.060;24.700;2022-08-03T07:49:56;97574.06;;;27.95;50.74
6094;BME280;19964;42.060;24.700;2022-08-03T07:52:23;97587.19;;;28.80;49.27
6094;BME280;19964;42.060;24.700;2022-08-03T07:55:16;97575.50;;;28.05;49.29
6094;BME280;19964;42.060;24.700;2022-08-03T07:57:45;97604.00;;;28.29;48.98
6094;BME280;19964;42.060;24.700;2022-08-03T08:00:14;97582.94;;;28.11;49.81
6094;BME280;19964;42.060;24.700;2022-08-03T08:02:41;97569.47;;;28.32;47.93
6094;BME280;19964;42.060;24.700;2022-08-03T08:05:09;97590.00;;;28.32;48.43
6094;BME280;19964;42.060;24.700;2022-08-03T08:07:37;97558.53;;;28.49;48.44
6094;BME280;19964;42.060;24.700;2022-08-03T08:10:06;97603.25;;;29.39;48.72
6094;BME280;19964;42.060;24.700;2022-08-03T08:12:34;97615.81;;;29.38;47.35
6094;BME280;19964;42.060;24.700;2022-08-03T08:15:03;97609.81;;;28.98;47.53
6094;BME280;19964;42.060;24.700;2022-08-03T08:17:30;97608.84;;;29.34;47.67
6094;BME280;19964;42.060;24.700;2022-08-03T08:19:57;97577.72;;;29.10;46.95
6094;BME280;19964;42.060;24.700;2022-08-03T08:22:23;97595.38;;;29.15;46.42
6094;BME280;19964;42.060;24.700;2022-08-03T08:24:50;97583.72;;;29.07;46.24
6094;BME280;19964;42.060;24.700;2022-08-03T08:27:17;97605.84;;;29.66;44.97
6094;BME280;19964;42.060;24.700;2022-08-03T08:29:44;97606.59;;;29.51;45.32
6094;BME280;19964;42.060;24.700;2022-08-03T08:32:12;97604.44;;;30.04;45.37
6094;BME280;19964;42.060;24.700;2022-08-03T08:34:40;97585.09;;;29.75;45.63
6094;BME280;19964;42.060;24.700;2022-08-03T08:37:07;97566.47;;;29.32;46.14
6094;BME280;19964;42.060;24.700;2022-08-03T08:39:34;97553.47;;;28.87;46.71
6094;BME280;19964;42.060;24.700;2022-08-03T08:42:01;97612.81;;;29.55;45.78
6094;BME280;19964;42.060;24.700;2022-08-03T08:44:28;97573.69;;;29.32;47.03
6094;BME280;19964;42.060;24.700;2022-08-03T08:46:56;97604.28;;;29.81;46.52
6094;BME280;19964;42.060;24.700;2022-08-03T08:49:31;97556.34;;;30.04;45.58
6094;BME280;19964;42.060;24.700;2022-08-03T08:52:02;97589.97;;;30.97;45.07
6094;BME280;19964;42.060;24.700;2022-08-03T08:54:31;97568.00;;;30.30;44.06
6094;BME280;19964;42.060;24.700;2022-08-03T08:57:01;97612.53;;;30.07;44.73
6094;BME280;19964;42.060;24.700;2022-08-03T08:59:31;97503.22;;;29.05;45.53
6094;BME280;19964;42.060;24.700;2022-08-03T09:01:58;97598.94;;;29.50;46.27
6094;BME280;19964;42.060;24.700;2022-08-03T09:04:26;97572.53;;;29.01;46.91
6094;BME280;19964;42.060;24.700;2022-08-03T09:06:55;97557.63;;;29.00;46.61
6094;BME280;19964;42.060;24.700;2022-08-03T09:09:22;97603.63;;;29.53;45.62
6094;BME280;19964;42.060;24.700;2022-08-03T09:11:49;97607.44;;;29.24;47.33
6094;BME280;19964;42.060;24.700;2022-08-03T09:14:16;97587.03;;;29.32;47.40
6094;BME280;19964;42.060;24.700;2022-08-03T09:16:59;97613.16;;;29.11;46.33
6094;BME280;19964;42.060;24.700;2022-08-03T09:19:27;97589.47;;;29.21;46.50
6094;BME280;19964;42.060;24.700;2022-08-03T09:22:10;97609.69;;;29.69;45.75
6094;BME280;19964;42.060;24.700;2022-08-03T09:24:52;97608.34;;;29.59;46.65
6094;BME280;19964;42.060;24.700;2022-08-03T09:27:20;97604.44;;;30.04;43.88
6094;BME280;19964;42.060;24.700;2022-08-03T09:29:48;97588.47;;;30.07;44.13
6094;BME280;19964;42.060;24.700;2022-08-03T09:32:18;97588.13;;;30.09;45.09
6094;BME280;19964;42.060;24.700;2022-08-03T09:34:46;97585.25;;;30.90;44.19
6094;BME280;19964;42.060;24.700;2022-08-03T09:37:16;97578.13;;;30.98;42.54
6094;BME280;19964;42.060;24.700;2022-08-03T09:39:43;97598.56;;;31.28;42.22
6094;BME280;19964;42.060;24.700;2022-08-03T09:42:12;97565.22;;;31.71;40.28
6094;BME280;19964;42.060;24.700;2022-08-03T09:44:40;97581.03;;;32.62;40.12
6094;BME280;19964;42.060;24.700;2022-08-03T09:47:08;97587.97;;;32.96;39.88
6094;BME280;19964;42.060;24.700;2022-08-03T09:49:36;97579.44;;;32.27;40.78
6094;BME280;19964;42.060;24.700;2022-08-03T09:52:12;97548.97;;;31.61;40.39
6094;BME280;19964;42.060;24.700;2022-08-03T09:54:41;97600.75;;;31.91;41.14
6094;BME280;19964;42.060;24.700;2022-08-03T09:57:19;97588.88;;;32.44;40.78
6094;BME280;19964;42.060;24.700;2022-08-03T09:59:47;97580.50;;;32.82;37.91
6094;BME280;19964;42.060;24.700;2022-08-03T10:02:21;97571.91;;;32.66;40.40
6094;BME280;19964;42.060;24.700;2022-08-03T10:04:50;97570.38;;;33.02;38.12
6094;BME280;19964;42.060;24.700;2022-08-03T10:07:19;97550.69;;;33.31;37.38
6094;BME280;19964;42.060;24.700;2022-08-03T10:09:55;97568.69;;;33.23;38.07
6094;BME280;19964;42.060;24.700;2022-08-03T10:12:23;97569.72;;;33.56;39.12
6094;BME280;19964;42.060;24.700;2022-08-03T10:14:50;97545.94;;;33.14;38.69
6094;BME280;19964;42.060;24.700;2022-08-03T10:17:18;97534.75;;;32.38;38.27
6094;BME280;19964;42.060;24.700;2022-08-03T10:19:45;97497.53;;;32.04;38.59
6094;BME280;19964;42.060;24.700;2022-08-03T10:22:15;97465.78;;;32.42;36.60
6094;BME280;19964;42.060;24.700;2022-08-03T10:24:51;97547.63;;;33.33;37.90
6094;BME280;19964;42.060;24.700;2022-08-03T10:27:21;97559.91;;;32.93;39.84
6094;BME280;19964;42.060;24.700;2022-08-03T10:29:51;97520.88;;;31.51;42.29
6094;BME280;19964;42.060;24.700;2022-08-03T10:32:24;97550.50;;;31.13;42.82
6094;BME280;19964;42.060;24.700;2022-08-03T10:34:56;97552.28;;;30.86;41.85
6094;BME280;19964;42.060;24.700;2022-08-03T10:37:29;97536.84;;;30.99;42.80
6094;BME280;19964;42.060;24.700;2022-08-03T10:39:59;97548.44;;;30.84;41.26
6094;BME280;19964;42.060;24.700;2022-08-03T10:42:28;97524.09;;;30.50;42.27
6094;BME280;19964;42.060;24.700;2022-08-03T10:45:02;97557.00;;;31.15;42.13
6094;BME280;19964;42.060;24.700;2022-08-03T10:47:30;97543.34;;;30.79;41.12
6094;BME280;19964;42.060;24.700;2022-08-03T10:49:57;97532.06;;;30.89;41.81
6094;BME280;19964;42.060;24.700;2022-08-03T10:52:25;97517.34;;;31.21;41.96
6094;BME280;19964;42.060;24.700;2022-08-03T10:54:52;97542.78;;;31.11;43.63
6094;BME280;19964;42.060;24.700;2022-08-03T10:57:49;97503.94;;;30.98;42.14
6094;BME280;19964;42.060;24.700;2022-08-03T11:00:18;97540.97;;;31.38;42.65
6094;BME280;19964;42.060;24.700;2022-08-03T11:03:03;97550.59;;;31.65;40.88
6094;BME280;19964;42.060;24.700;2022-08-03T11:05:32;97514.56;;;31.89;41.98
6094;BME280;19964;42.060;24.700;2022-08-03T11:08:32;97533.38;;;32.18;42.06
6094;BME280;19964;42.060;24.700;2022-08-03T11:11:03;97504.13;;;31.54;41.90
6094;BME280;19964;42.060;24.700;2022-08-03T11:14:06;97535.84;;;31.78;41.16
6094;BME280;19964;42.060;24.700;2022-08-03T11:16:35;97440.34;;;31.14;43.53
6094;BME280;19964;42.060;24.700;2022-08-03T11:19:04;97521.41;;;31.86;43.63
6094;BME280;19964;42.060;24.700;2022-08-03T11:21:53;97531.25;;;32.05;40.94
6094;BME280;19964;42.060;24.700;2022-08-03T11:27:22;97531.22;;;31.75;44.84
6094;BME280;19964;42.060;24.700;2022-08-03T11:29:59;97523.28;;;32.41;39.69
6094;BME280;19964;42.060;24.700;2022-08-03T11:32:57;97513.25;;;32.68;39.58
6094;BME280;19964;42.060;24.700;2022-08-03T11:35:27;97463.66;;;32.55;38.70
6094;BME280;19964;42.060;24.700;2022-08-03T11:38:08;97476.50;;;32.06;40.33
6094;BME280;19964;42.060;24.700;2022-08-03T11:40:46;97490.81;;;32.50;40.04
6094;BME280;19964;42.060;24.700;2022-08-03T11:43:45;97503.13;;;32.21;41.44
6094;BME280;19964;42.060;24.700;2022-08-03T11:46:14;97474.09;;;31.45;42.54
6094;BME280;19964;42.060;24.700;2022-08-03T11:48:47;97518.66;;;32.09;39.14
6094;BME280;19964;42.060;24.700;2022-08-03T11:51:19;97492.91;;;32.01;38.83
6094;BME280;19964;42.060;24.700;2022-08-03T11:53:51;97491.25;;;31.67;40.92
6094;BME280;19964;42.060;24.700;2022-08-03T11:56:18;97510.53;;;32.02;38.72
6094;BME280;19964;42.060;24.700;2022-08-03T11:58:47;97504.31;;;32.24;38.28
6094;BME280;19964;42.060;24.700;2022-08-03T12:01:16;97417.13;;;31.78;37.21
6094;BME280;19964;42.060;24.700;2022-08-03T12:03:44;97462.34;;;32.09;37.51
6094;BME280;19964;42.060;24.700;2022-08-03T12:06:13;97493.44;;;31.87;37.04
6094;BME280;19964;42.060;24.700;2022-08-03T12:08:41;97504.88;;;31.81;38.86
6094;BME280;19964;42.060;24.700;2022-08-03T12:11:10;97483.94;;;32.19;40.31
6094;BME280;19964;42.060;24.700;2022-08-03T12:13:39;97428.00;;;32.21;36.94
6094;BME280;19964;42.060;24.700;2022-08-03T12:16:07;97473.44;;;32.77;36.17
6094;BME280;19964;42.060;24.700;2022-08-03T12:18:35;97450.97;;;32.52;39.01
6094;BME280;19964;42.060;24.700;2022-08-03T12:21:05;97472.19;;;31.72;37.78
6094;BME280;19964;42.060;24.700;2022-08-03T12:23:32;97488.66;;;31.44;40.44
6094;BME280;19964;42.060;24.700;2022-08-03T12:26:04;97488.16;;;31.65;40.05
6094;BME280;19964;42.060;24.700;2022-08-03T12:28:31;97455.81;;;32.06;40.67
6094;BME280;19964;42.060;24.700;2022-08-03T12:31:01;97446.97;;;32.39;38.56
6094;BME280;19964;42.060;24.700;2022-08-03T12:33:31;97471.69;;;32.95;37.41
6094;BME280;19964;42.060;24.700;2022-08-03T12:36:05;97449.56;;;33.05;37.90
6094;BME280;19964;42.060;24.700;2022-08-03T12:38:33;97486.66;;;33.44;38.36
6094;BME280;19964;42.060;24.700;2022-08-03T12:41:03;97490.13;;;33.41;39.74
6094;BME280;19964;42.060;24.700;2022-08-03T12:43:31;97487.09;;;32.62;38.91
6094;BME280;19964;42.060;24.700;2022-08-03T12:46:09;97449.22;;;32.00;39.11
6094;BME280;19964;42.060;24.700;2022-08-03T12:51:59;97469.38;;;31.61;39.65
6094;BME280;19964;42.060;24.700;2022-08-03T12:54:27;97447.13;;;31.87;38.10
6094;BME280;19964;42.060;24.700;2022-08-03T12:56:57;97456.09;;;31.72;40.53
6094;BME280;19964;42.060;24.700;2022-08-03T12:59:25;97464.09;;;31.68;42.03
6094;BME280;19964;42.060;24.700;2022-08-03T13:01:52;97446.75;;;31.58;40.24
6094;BME280;19964;42.060;24.700;2022-08-03T13:04:27;97450.91;;;31.56;40.30
6094;BME280;19964;42.060;24.700;2022-08-03T13:07:00;97429.72;;;31.44;40.49
6094;BME280;19964;42.060;24.700;2022-08-03T13:09:27;97424.19;;;31.60;38.23
6094;BME280;19964;42.060;24.700;2022-08-03T13:12:06;97412.34;;;31.64;36.37
6094;BME280;19964;42.060;24.700;2022-08-03T13:14:34;97430.94;;;32.09;36.88
6094;BME280;19964;42.060;24.700;2022-08-03T13:17:01;97462.06;;;31.88;38.12
6094;BME280;19964;42.060;24.700;2022-08-03T13:19:28;97450.78;;;32.05;37.88
6094;BME280;19964;42.060;24.700;2022-08-03T13:21:55;97443.81;;;31.41;36.88